Time;durP1;ratioP1;P1;durP2;ratioP2;P2;SDS_P1;SDS_P2;PMS_P1;PMS_P2;Temp;Humidity;BMP_temperature;BMP_pressure;BME280_temperature;BME280_humidity;BME280_pressure;Samples;Min_cycle;Max_cycle;Signal;HPM_P1;HPM_P2
2022/06/30 00:02:10;;;;;;;7.00;5.65;;;;;;;23.13;47.50;101027.41;4918533;28;123550;-70
2022/06/30 00:04:37;;;;;;;6.68;5.85;;;;;;;23.09;47.69;101017.91;4894563;28;124255;-70
2022/06/30 00:07:05;;;;;;;7.45;5.60;;;;;;;23.04;47.82;101013.94;4897192;28;119168;-70
2022/06/30 00:09:32;;;;;;;8.93;6.40;;;;;;;23.01;47.91;101015.03;4896839;28;119031;-70
2022/06/30 00:11:59;;;;;;;10.73;6.35;;;;;;;22.98;47.90;101009.94;4897809;28;124281;-70
2022/06/30 00:14:26;;;;;;;8.07;5.88;;;;;;;22.95;47.82;101015.63;4899494;28;123798;-70
2022/06/30 00:16:53;;;;;;;7.57;5.65;;;;;;;22.92;48.05;101015.91;4894365;28;119777;-71
2022/06/30 00:19:20;;;;;;;8.02;6.00;;;;;;;22.86;48.04;101017.34;4893608;28;119007;-71
2022/06/30 00:21:47;;;;;;;8.27;5.90;;;;;;;22.84;48.13;101018.50;4898262;28;124696;-71
2022/06/30 00:24:15;;;;;;;8.90;6.50;;;;;;;22.82;48.12;101015.94;4895081;28;124031;-70
2022/06/30 00:26:47;;;;;;;8.63;6.13;;;;;;;22.79;48.10;101015.34;4896961;28;119131;-70
2022/06/30 00:29:14;;;;;;;9.32;6.60;;;;;;;22.76;48.25;101015.66;4895653;28;118842;-70
2022/06/30 00:31:41;;;;;;;8.73;6.78;;;;;;;22.72;48.31;101013.25;4897283;28;127551;-70
2022/06/30 00:34:08;;;;;;;8.20;6.68;;;;;;;22.69;48.30;101010.81;4903734;28;124887;-70
2022/06/30 00:36:35;;;;;;;9.68;7.15;;;;;;;22.68;48.33;101002.91;4901312;28;119500;-68
2022/06/30 00:39:03;;;;;;;8.27;6.90;;;;;;;22.64;48.38;101002.31;4899447;28;119013;-68
2022/06/30 00:41:30;;;;;;;8.68;6.70;;;;;;;22.60;48.52;101000.88;4898387;28;125025;-68
2022/06/30 00:43:57;;;;;;;7.55;6.75;;;;;;;22.57;48.54;101009.28;4899850;28;123875;-68
2022/06/30 00:46:24;;;;;;;8.48;7.13;;;;;;;22.51;48.69;101007.16;4906789;28;120490;-68
2022/06/30 00:48:52;;;;;;;8.95;7.00;;;;;;;22.46;49.03;101004.03;4900014;28;120119;-68
2022/06/30 00:51:23;;;;;;;8.40;7.45;;;;;;;22.42;49.13;100999.94;4912716;28;124057;-68
2022/06/30 00:53:54;;;;;;;11.65;7.40;;;;;;;22.40;49.17;101004.63;4898181;28;124254;-69
2022/06/30 00:56:25;;;;;;;8.80;7.32;;;;;;;22.37;49.35;100997.63;4897128;28;119327;-69
2022/06/30 00:58:55;;;;;;;8.75;7.53;;;;;;;22.35;49.41;100996.94;4896904;28;119296;-69
2022/06/30 01:01:24;;;;;;;11.02;7.68;;;;;;;22.32;49.42;100998.06;4897386;28;123245;-69
2022/06/30 01:03:55;;;;;;;10.70;8.00;;;;;;;22.31;49.54;100996.34;4902020;28;123769;-69
2022/06/30 01:06:22;;;;;;;8.45;7.43;;;;;;;22.32;49.49;100992.69;4893329;28;119175;-69
2022/06/30 01:08:50;;;;;;;9.20;7.68;;;;;;;22.30;49.58;100993.78;4895039;28;119035;-69
2022/06/30 01:14:03;;;;;;;11.27;8.30;;;;;;;22.26;49.62;100990.53;4891709;28;124618;-66
2022/06/30 01:16:30;;;;;;;11.82;8.85;;;;;;;22.25;49.79;100996.06;4896078;28;119438;-69
2022/06/30 01:18:58;;;;;;;8.93;7.85;;;;;;;22.23;49.63;100987.25;4895500;28;118943;-69
2022/06/30 01:21:27;;;;;;;9.77;8.15;;;;;;;22.21;49.92;100986.50;4902727;28;124091;-70
2022/06/30 01:23:55;;;;;;;10.80;8.48;;;;;;;22.17;49.92;100989.50;4898040;28;124477;-69
2022/06/30 01:26:23;;;;;;;9.73;7.95;;;;;;;22.15;49.99;100990.63;4895807;28;119769;-69
2022/06/30 01:28:51;;;;;;;10.65;8.65;;;;;;;22.12;49.99;101007.13;4893050;28;118754;-66
2022/06/30 01:31:18;;;;;;;11.02;8.00;;;;;;;22.10;50.19;101004.56;4921157;28;123188;-69
2022/06/30 01:33:45;;;;;;;12.18;8.60;;;;;;;22.07;50.24;101014.75;4897284;28;124276;-69
2022/06/30 01:36:12;;;;;;;9.90;8.18;;;;;;;22.07;50.36;101014.75;4899683;28;120306;-69
2022/06/30 01:38:41;;;;;;;10.45;8.55;;;;;;;22.07;50.34;101012.06;4899384;28;96895;-69
2022/06/30 01:41:08;;;;;;;11.27;8.48;;;;;;;22.07;50.62;101020.16;4897251;28;124973;-69
2022/06/30 01:43:35;;;;;;;11.13;8.98;;;;;;;22.08;50.51;101021.88;4902774;28;123796;-69
2022/06/30 01:46:02;;;;;;;11.32;8.98;;;;;;;22.09;50.61;101013.63;4904783;28;118322;-69
2022/06/30 01:48:30;;;;;;;10.40;9.23;;;;;;;22.11;50.79;101016.19;4895435;28;119073;-69
2022/06/30 01:50:57;;;;;;;10.57;8.60;;;;;;;22.12;50.78;101012.50;4900853;28;124840;-70
2022/06/30 01:53:24;;;;;;;11.23;9.35;;;;;;;22.13;50.75;101015.06;4896889;28;125502;-70
2022/06/30 01:55:51;;;;;;;11.57;8.93;;;;;;;22.14;50.74;101015.91;4896755;28;119585;-69
2022/06/30 01:58:18;;;;;;;11.82;8.95;;;;;;;22.13;50.74;101015.06;4900625;28;119676;-69
2022/06/30 02:00:45;;;;;;;11.52;9.45;;;;;;;22.14;50.78;101016.75;4902575;28;123942;-69
2022/06/30 02:03:13;;;;;;;11.95;9.43;;;;;;;22.14;50.59;101015.91;4898226;28;123942;-69
2022/06/30 02:05:41;;;;;;;12.05;9.30;;;;;;;22.13;50.73;101014.19;4893159;28;119279;-70
2022/06/30 02:08:08;;;;;;;11.35;8.75;;;;;;;22.11;50.95;101010.78;4902475;28;118603;-69
2022/06/30 02:10:35;;;;;;;10.57;9.00;;;;;;;22.09;50.93;101013.63;4904307;28;125782;-69
2022/06/30 02:13:05;;;;;;;12.65;9.05;;;;;;;22.08;50.71;101011.94;4898484;28;124436;-70
2022/06/30 02:15:36;;;;;;;10.27;8.75;;;;;;;22.09;51.03;101018.19;4899958;28;119901;-69
2022/06/30 02:18:06;;;;;;;11.45;8.98;;;;;;;22.06;50.75;101013.09;4905595;28;118493;-70
2022/06/30 02:20:34;;;;;;;10.18;8.60;;;;;;;22.05;50.76;101016.75;4904503;28;124400;-70
2022/06/30 02:23:03;;;;;;;10.50;8.88;;;;;;;22.02;50.84;101017.03;4901795;28;123780;-67
2022/06/30 02:25:31;;;;;;;11.25;8.70;;;;;;;22.01;50.91;101015.34;4900384;28;119996;-67
2022/06/30 02:28:00;;;;;;;10.75;9.18;;;;;;;21.97;51.12;101026.38;4900460;28;120002;-67
2022/06/30 02:30:28;;;;;;;13.57;9.50;;;;;;;21.94;51.13;101015.91;4899313;28;124384;-69
2022/06/30 02:32:55;;;;;;;13.10;9.57;;;;;;;21.92;51.34;101017.84;4901368;28;123710;-69
2022/06/30 02:35:22;;;;;;;11.52;8.60;;;;;;;21.90;51.41;101013.59;4904466;28;118323;-69
2022/06/30 02:37:50;;;;;;;10.77;9.35;;;;;;;21.85;51.50;101019.41;4897267;28;119100;-70
2022/06/30 02:40:18;;;;;;;12.18;9.60;;;;;;;21.81;51.58;101020.66;4901039;28;123933;-67
2022/06/30 02:42:45;;;;;;;12.90;9.93;;;;;;;21.77;51.77;101013.84;4900014;28;123892;-69
2022/06/30 02:45:13;;;;;;;11.65;9.48;;;;;;;21.77;51.76;101013.84;4895614;28;119458;-69
2022/06/30 02:47:42;;;;;;;11.60;9.07;;;;;;;21.75;51.64;101007.75;4895543;28;117738;-67
2022/06/30 02:50:12;;;;;;;12.55;9.75;;;;;;;21.74;51.66;101016.84;4896229;28;123774;-69
2022/06/30 02:52:39;;;;;;;14.25;10.93;;;;;;;21.72;51.94;101005.34;4903328;28;124618;-69
2022/06/30 02:55:07;;;;;;;14.73;10.82;;;;;;;21.69;51.95;101005.59;4906924;28;119427;-69
2022/06/30 02:57:38;;;;;;;14.40;10.63;;;;;;;21.66;52.14;101011.25;4901166;28;118835;-69
2022/06/30 03:00:07;;;;;;;15.07;11.25;;;;;;;21.65;52.10;100998.78;4901795;28;125476;-67
2022/06/30 03:02:34;;;;;;;14.40;10.63;;;;;;;21.63;52.02;101000.78;4895052;28;125650;-69
2022/06/30 03:05:02;;;;;;;14.88;10.75;;;;;;;21.62;52.27;100993.66;4901390;28;120906;-67
2022/06/30 03:07:29;;;;;;;13.70;11.52;;;;;;;21.61;52.17;100998.22;4895416;28;119147;-67
2022/06/30 03:09:56;;;;;;;13.35;10.05;;;;;;;21.58;52.24;100996.63;4901255;28;124023;-70
2022/06/30 03:12:24;;;;;;;14.80;10.98;;;;;;;21.57;52.41;100994.94;4902407;28;123684;-68
2022/06/30 03:14:51;;;;;;;15.38;10.98;;;;;;;21.53;52.09;100990.81;4897757;28;120069;-69
2022/06/30 03:17:18;;;;;;;15.20;11.38;;;;;;;21.52;52.40;100982.84;4900556;28;120382;-67
2022/06/30 03:19:45;;;;;;;14.55;11.13;;;;;;;21.50;52.37;100985.69;4895634;28;124342;-67
2022/06/30 03:22:12;;;;;;;16.15;11.50;;;;;;;21.49;52.25;100989.38;4921542;28;122916;-67
2022/06/30 03:24:39;;;;;;;13.95;11.27;;;;;;;21.47;52.36;100991.34;4897458;28;119231;-67
2022/06/30 03:27:07;;;;;;;12.90;10.80;;;;;;;21.47;52.19;100991.34;4902059;28;119180;-69
2022/06/30 03:29:34;;;;;;;14.15;11.23;;;;;;;21.46;52.41;101000.44;4900188;28;124836;-69
2022/06/30 03:32:01;;;;;;;14.32;11.85;;;;;;;21.44;52.42;101002.41;4903091;28;123944;-67
2022/06/30 03:34:28;;;;;;;14.60;11.40;;;;;;;21.43;52.34;101006.03;4890263;28;119102;-68
2022/06/30 03:36:55;;;;;;;16.05;11.35;;;;;;;21.40;52.37;100995.56;4896499;28;119626;-67
2022/06/30 03:39:22;;;;;;;16.38;11.82;;;;;;;21.37;52.64;100995.81;4897260;28;124633;-67
2022/06/30 03:41:49;;;;;;;17.88;12.30;;;;;;;21.35;52.70;100997.78;4895583;28;124811;-69
2022/06/30 03:44:17;;;;;;;14.18;11.80;;;;;;;21.31;52.77;101001.75;4895409;28;119863;-69
2022/06/30 03:46:44;;;;;;;14.85;11.75;;;;;;;21.27;53.06;101005.72;4893378;28;119083;-71
2022/06/30 03:49:12;;;;;;;18.35;11.70;;;;;;;21.24;53.05;101005.97;4900377;28;124953;-69
2022/06/30 03:51:39;;;;;;;15.07;12.07;;;;;;;21.21;53.15;101001.72;4902853;28;124328;-69
2022/06/30 03:54:06;;;;;;;17.85;12.63;;;;;;;21.20;53.57;100995.44;4904987;28;119337;-69
2022/06/30 03:56:33;;;;;;;16.63;13.43;;;;;;;21.23;53.79;100993.47;4899588;28;119125;-66
2022/06/30 03:59:00;;;;;;;19.02;14.07;;;;;;;21.26;53.56;100993.22;4899041;28;123896;-68
2022/06/30 04:01:27;;;;;;;21.05;15.05;;;;;;;21.30;53.73;100989.25;4898931;28;123651;-68
2022/06/30 04:03:55;;;;;;;20.88;14.18;;;;;;;21.31;53.65;100981.03;4897996;28;120654;-68
2022/06/30 04:06:26;;;;;;;22.70;14.18;;;;;;;21.33;53.73;100983.59;4904836;28;119990;-67
2022/06/30 04:08:53;;;;;;;21.67;13.13;;;;;;;21.33;53.54;100994.38;4896846;28;124461;-67
2022/06/30 04:11:20;;;;;;;17.38;13.20;;;;;;;21.28;53.56;100988.53;4904767;28;123682;-68
2022/06/30 04:13:47;;;;;;;17.00;13.38;;;;;;;21.21;54.03;100982.84;4897448;28;120000;-68
2022/06/30 04:16:14;;;;;;;18.20;13.07;;;;;;;21.17;53.93;100974.19;4903319;28;119597;-68
2022/06/30 04:18:41;;;;;;;16.65;13.25;;;;;;;21.13;54.00;100978.13;4899556;28;124560;-68
2022/06/30 04:21:08;;;;;;;17.52;14.15;;;;;;;21.11;54.33;100974.69;4898346;28;124235;-68
2022/06/30 04:23:35;;;;;;;16.75;12.85;;;;;;;21.10;54.35;100991.88;4895128;28;119168;-69
2022/06/30 04:26:03;;;;;;;19.63;14.18;;;;;;;21.09;54.51;100976.69;4902875;28;119327;-68
2022/06/30 04:28:30;;;;;;;20.02;13.65;;;;;;;21.11;54.51;100979.25;4897367;28;123727;-69
2022/06/30 04:33:42;;;;;;;22.48;15.10;;;;;;;21.19;54.65;100976.72;4898307;28;119956;-70
2022/06/30 04:36:11;;;;;;;23.50;15.52;;;;;;;21.24;54.84;100973.63;4900837;28;119363;-71
2022/06/30 04:38:38;;;;;;;20.88;15.35;;;;;;;21.29;54.78;100971.41;4909257;28;123463;-70
2022/06/30 04:41:24;;;;;;;23.80;15.57;;;;;;;21.34;54.49;100978.09;4899518;28;124064;-70
2022/06/30 04:43:53;;;;;;;19.38;14.70;;;;;;;21.38;54.60;100970.59;4901099;28;119073;-70
2022/06/30 04:46:21;;;;;;;19.77;14.68;;;;;;;21.41;54.64;100970.28;4892942;28;119393;-69
2022/06/30 04:48:49;;;;;;;22.55;15.50;;;;;;;21.47;55.19;100964.38;4899564;28;124998;-69
2022/06/30 04:51:16;;;;;;;18.65;14.45;;;;;;;21.57;55.52;100975.22;4898712;28;123553;-69
2022/06/30 04:53:43;;;;;;;17.90;13.25;;;;;;;21.70;55.72;100985.72;4894950;28;120626;-69
2022/06/30 04:56:11;;;;;;;19.42;14.35;;;;;;;21.84;55.71;100985.34;4893176;28;120292;-70
2022/06/30 04:58:38;;;;;;;19.08;15.18;;;;;;;22.00;55.61;100992.03;4896527;28;124211;-70
2022/06/30 05:01:05;;;;;;;19.05;14.90;;;;;;;22.14;55.35;100989.78;4902335;28;123781;-70
2022/06/30 05:03:33;;;;;;;21.90;15.90;;;;;;;22.29;55.23;100987.56;4887996;28;119194;-70
2022/06/30 05:06:00;;;;;;;19.98;16.08;;;;;;;22.42;54.62;100989.13;4906845;28;120457;-71
2022/06/30 05:08:28;;;;;;;21.33;15.75;;;;;;;22.52;54.47;100987.25;4897328;28;124068;-71
2022/06/30 05:10:55;;;;;;;21.90;16.38;;;;;;;22.60;54.23;100990.09;4909462;28;123110;-71
2022/06/30 05:13:26;;;;;;;22.50;17.50;;;;;;;22.68;54.07;100984.84;4902027;28;119221;-71
2022/06/30 05:15:54;;;;;;;22.27;17.30;;;;;;;22.74;53.76;100976.16;4899029;28;119025;-71
2022/06/30 05:18:21;;;;;;;21.95;17.38;;;;;;;22.81;53.72;100978.25;4897424;28;124445;-71
2022/06/30 05:20:48;;;;;;;21.67;17.13;;;;;;;22.88;53.54;100982.09;4894642;28;124681;-71
2022/06/30 05:23:15;;;;;;;21.40;16.90;;;;;;;22.92;53.39;100978.09;4909196;28;118529;-71
2022/06/30 05:28:28;;;;;;;19.60;15.57;;;;;;;22.99;53.38;100987.31;4893077;28;124592;-70
2022/06/30 05:30:56;;;;;;;20.38;15.32;;;;;;;23.02;53.41;100989.72;4896402;28;122642;-72
2022/06/30 05:33:23;;;;;;;18.00;13.95;;;;;;;23.05;53.43;100984.06;4908147;28;118630;-72
2022/06/30 05:35:53;;;;;;;16.05;13.93;;;;;;;23.08;53.25;101010.78;4896234;28;118847;-73
2022/06/30 05:38:20;;;;;;;19.58;13.63;;;;;;;23.11;53.35;100982.59;4894716;28;124886;-72
2022/06/30 05:40:47;;;;;;;16.08;12.82;;;;;;;23.13;53.20;101007.63;4899113;28;124344;-72
2022/06/30 05:43:16;;;;;;;16.30;13.15;;;;;;;23.17;53.36;100989.28;4893828;28;120165;-72
2022/06/30 05:45:46;;;;;;;17.05;12.10;;;;;;;23.19;53.24;100995.38;4896219;28;120818;-72
2022/06/30 05:48:13;;;;;;;14.60;11.68;;;;;;;23.24;53.08;100993.09;4896423;28;124394;-72
2022/06/30 05:50:41;;;;;;;16.27;12.38;;;;;;;23.26;53.20;100991.09;4899302;28;123649;-72
2022/06/30 05:53:08;;;;;;;14.50;11.95;;;;;;;23.32;53.19;101001.34;4894976;28;119403;-72
2022/06/30 05:55:35;;;;;;;14.55;12.02;;;;;;;23.37;52.98;100998.16;4905230;28;118230;-72
2022/06/30 05:58:06;;;;;;;14.30;11.75;;;;;;;23.39;52.99;100997.00;4905043;28;125508;-70
2022/06/30 06:00:34;;;;;;;18.45;11.52;;;;;;;23.41;52.97;100984.19;4903755;28;123982;-70
2022/06/30 06:03:02;;;;;;;15.50;12.20;;;;;;;23.45;53.01;100996.44;4902511;28;118780;-69
2022/06/30 06:05:30;;;;;;;17.23;12.82;;;;;;;23.47;52.94;100997.13;4900038;28;120026;-69
2022/06/30 06:08:04;;;;;;;13.93;12.50;;;;;;;23.51;52.98;100990.41;4894491;28;124160;-69
2022/06/30 06:10:32;;;;;;;15.30;13.10;;;;;;;23.58;52.80;101000.63;4895652;28;124938;-69
2022/06/30 06:12:59;;;;;;;16.70;13.27;;;;;;;23.62;52.85;100996.63;4894426;28;119806;-69
2022/06/30 06:15:26;;;;;;;14.98;12.40;;;;;;;23.66;52.92;100996.19;4895431;28;119528;-69
2022/06/30 06:17:53;;;;;;;16.40;13.38;;;;;;;23.72;53.02;100989.31;4903809;28;124514;-70
2022/06/30 06:20:21;;;;;;;17.08;13.85;;;;;;;23.81;53.13;100985.75;4905959;28;123527;-70
2022/06/30 06:22:48;;;;;;;16.02;13.73;;;;;;;23.90;53.04;100983.94;4892499;28;119555;-71
2022/06/30 06:25:15;;;;;;;17.85;14.07;;;;;;;24.01;53.17;100982.88;4891744;28;118843;-70
2022/06/30 06:29:05;;;;;;;15.65;13.40;;;;;;;24.14;52.99;100996.88;4898877;28;124770;-70
2022/06/30 06:30:30;;;;;;;17.38;14.10;;;;;;;24.25;52.71;100999.38;4897870;28;123981;-71
2022/06/30 06:32:57;;;;;;;19.25;13.85;;;;;;;24.35;52.58;101003.84;4891100;28;120821;-71
2022/06/30 06:35:25;;;;;;;18.80;14.85;;;;;;;24.43;52.44;101006.63;4898893;28;120121;-70
2022/06/30 06:37:52;;;;;;;17.63;14.35;;;;;;;24.54;52.68;101009.13;4888597;28;124603;-70
2022/06/30 06:40:19;;;;;;;19.40;14.52;;;;;;;24.65;52.40;101017.00;4907306;28;124609;-70
2022/06/30 06:42:46;;;;;;;19.42;14.82;;;;;;;24.77;52.30;101004.06;4902649;28;119734;-70
2022/06/30 06:45:13;;;;;;;17.30;14.65;;;;;;;24.90;52.31;101009.06;4895707;28;119063;-70
2022/06/30 06:47:40;;;;;;;20.05;15.48;;;;;;;25.03;52.13;101009.50;4905770;28;126299;-69
2022/06/30 06:50:08;;;;;;;19.80;16.70;;;;;;;25.14;51.94;101008.38;4911758;28;123888;-69
2022/06/30 06:52:35;;;;;;;22.65;16.30;;;;;;;25.25;51.58;101007.28;4906990;28;119392;-70
2022/06/30 06:55:03;;;;;;;16.85;15.13;;;;;;;25.35;51.67;101013.41;4899153;28;119564;-69
2022/06/30 06:57:35;;;;;;;18.23;15.63;;;;;;;25.44;51.31;101023.31;4907336;28;124260;-69
2022/06/30 07:00:07;;;;;;;19.30;16.10;;;;;;;25.56;51.40;101031.16;4904070;28;124253;-69
2022/06/30 07:02:35;;;;;;;18.67;16.10;;;;;;;25.69;51.15;101020.69;4897413;28;119183;-69
2022/06/30 07:05:02;;;;;;;19.85;17.05;;;;;;;25.83;50.82;101030.94;4897698;28;119052;-69
2022/06/30 07:07:35;;;;;;;20.17;16.35;;;;;;;25.93;51.07;101021.84;4896844;28;124157;-69
2022/06/30 07:10:07;;;;;;;20.08;17.20;;;;;;;26.00;50.73;101028.31;4908844;28;123856;-70
2022/06/30 07:12:35;;;;;;;18.27;15.80;;;;;;;26.08;50.57;101025.59;4924490;28;119384;-69
2022/06/30 07:15:02;;;;;;;18.33;16.08;;;;;;;26.17;50.16;101035.47;4901133;28;119155;-69
2022/06/30 07:17:35;;;;;;;20.88;16.33;;;;;;;26.27;50.05;101045.31;4900743;28;124003;-69
2022/06/30 07:20:03;;;;;;;20.83;16.00;;;;;;;26.35;49.80;101048.03;4908791;28;124073;-70
2022/06/30 07:22:30;;;;;;;19.92;15.60;;;;;;;26.42;49.88;101038.22;4908573;28;120270;-69
2022/06/30 07:24:57;;;;;;;17.60;15.05;;;;;;;26.52;49.80;101049.78;4913102;28;120883;-69
2022/06/30 07:27:24;;;;;;;19.15;16.35;;;;;;;26.63;49.91;101050.50;4910051;28;124035;-69
2022/06/30 07:29:52;;;;;;;20.90;17.48;;;;;;;26.75;49.48;101051.88;4911591;28;123934;-69
2022/06/30 07:32:19;;;;;;;20.90;17.00;;;;;;;26.84;49.58;101058.97;4912765;28;119349;-69
2022/06/30 07:34:46;;;;;;;18.10;16.20;;;;;;;26.91;49.31;101053.72;4911696;28;117931;-69
2022/06/30 07:37:13;;;;;;;20.35;16.80;;;;;;;26.99;49.44;101062.72;4910138;28;123869;-69
2022/06/30 07:39:40;;;;;;;18.77;16.27;;;;;;;27.09;48.79;101065.25;4912336;28;123798;-69
2022/06/30 07:42:07;;;;;;;20.70;15.57;;;;;;;27.19;49.03;101073.22;4910143;28;119229;-69
2022/06/30 07:44:34;;;;;;;18.60;15.82;;;;;;;27.26;48.75;101082.41;4900673;28;118970;-69
2022/06/30 07:47:02;;;;;;;20.85;15.93;;;;;;;27.29;48.38;101076.63;4908890;28;124072;-70
2022/06/30 07:49:29;;;;;;;19.48;15.20;;;;;;;27.34;48.35;101082.38;4897460;28;124479;-70
2022/06/30 07:51:56;;;;;;;16.77;14.90;;;;;;;27.40;48.29;101085.44;4910017;28;119216;-69
2022/06/30 07:54:23;;;;;;;17.48;14.85;;;;;;;27.48;48.00;101088.13;4908719;28;119621;-69
2022/06/30 07:56:51;;;;;;;20.60;14.68;;;;;;;27.56;47.96;101090.84;4909630;28;123866;-69
2022/06/30 07:59:39;;;;;;;16.83;13.57;;;;;;;27.66;48.36;101096.94;4891863;28;124562;-69
2022/06/30 08:02:06;;;;;;;18.20;12.65;;;;;;;27.73;47.63;101102.53;4902776;28;119184;-69
2022/06/30 08:04:34;;;;;;;15.10;11.75;;;;;;;27.78;47.15;101100.13;4912320;28;119591;-69
2022/06/30 08:07:04;;;;;;;15.30;11.93;;;;;;;27.84;47.19;101114.88;4909770;28;124086;-69
2022/06/30 08:09:31;;;;;;;14.65;11.95;;;;;;;27.88;46.73;101105.38;4906700;28;124443;-69
2022/06/30 08:11:59;;;;;;;13.63;11.38;;;;;;;27.92;46.74;101117.63;4899648;28;120122;-69
2022/06/30 08:14:26;;;;;;;14.38;11.55;;;;;;;27.96;46.49;101113.53;4907671;28;120603;-69
2022/06/30 08:16:54;;;;;;;15.07;10.68;;;;;;;27.98;46.38;101103.31;4900967;28;124883;-70
2022/06/30 08:19:21;;;;;;;13.13;9.60;;;;;;;28.03;46.58;101103.63;4909433;28;123793;-69
2022/06/30 08:21:48;;;;;;;12.93;9.38;;;;;;;28.09;46.48;101102.06;4909632;28;119500;-69
2022/06/30 08:24:15;;;;;;;12.60;9.13;;;;;;;28.13;45.73;101093.34;4909974;28;118780;-69
2022/06/30 08:26:43;;;;;;;11.05;9.13;;;;;;;28.19;45.25;101096.41;4908788;28;124442;-69
2022/06/30 08:29:12;;;;;;;14.93;9.50;;;;;;;28.21;45.64;101078.00;4911049;28;124613;-69
2022/06/30 08:31:40;;;;;;;13.38;9.70;;;;;;;28.25;45.68;101087.50;4899635;28;119993;-69
2022/06/30 08:34:08;;;;;;;13.52;9.60;;;;;;;28.30;45.78;101093.28;4903434;28;119590;-69
2022/06/30 08:36:35;;;;;;;12.57;9.15;;;;;;;28.37;45.79;101083.34;4890855;28;124146;-69
2022/06/30 08:39:02;;;;;;;9.88;8.18;;;;;;;28.44;45.52;101084.31;4892021;28;124499;-69
2022/06/30 08:44:18;;;;;;;11.98;8.65;;;;;;;28.59;45.33;101097.19;4909534;28;118813;-69
2022/06/30 08:46:52;;;;;;;11.45;8.00;;;;;;;28.67;45.11;101099.84;4909122;28;124284;-70
2022/06/30 08:49:20;;;;;;;9.82;7.18;;;;;;;28.73;45.20;101082.78;4895875;28;124509;-69
2022/06/30 08:51:47;;;;;;;11.13;7.53;;;;;;;28.78;44.88;101079.50;4912181;28;118986;-69
2022/06/30 08:54:19;;;;;;;10.02;6.18;;;;;;;28.81;44.25;101090.03;4909489;28;120308;-70
2022/06/30 08:56:49;;;;;;;9.25;6.22;;;;;;;28.81;44.23;101085.44;4898811;28;124405;-70
2022/06/30 08:59:17;;;;;;;7.93;6.03;;;;;;;28.84;43.98;101079.63;4892962;28;123823;-70
2022/06/30 09:01:46;;;;;;;11.50;7.05;;;;;;;28.87;43.90;101084.69;4899267;28;120204;-70
2022/06/30 09:04:13;;;;;;;11.70;7.60;;;;;;;28.90;43.89;101088.94;4903570;28;120517;-70
2022/06/30 09:06:44;;;;;;;11.40;7.40;;;;;;;28.96;43.98;101092.81;4899925;28;123990;-70
2022/06/30 09:09:12;;;;;;;9.27;6.80;;;;;;;29.01;44.03;101084.91;4908500;28;124259;-70
2022/06/30 09:11:58;;;;;;;9.45;6.90;;;;;;;29.10;43.95;101083.81;4909695;28;119373;-69
2022/06/30 09:14:32;;;;;;;8.38;6.57;;;;;;;29.19;43.90;101088.19;4895613;28;119846;-70
2022/06/30 09:17:01;;;;;;;11.00;6.80;;;;;;;29.25;43.50;101086.59;4899716;28;123974;-69
2022/06/30 09:19:30;;;;;;;10.55;5.68;;;;;;;29.26;43.80;101094.59;4889969;28;124587;-69
2022/06/30 09:22:24;;;;;;;6.95;5.57;;;;;;;29.29;43.55;101088.78;4898090;28;119597;-70
2022/06/30 09:25:04;;;;;;;7.47;5.20;;;;;;;29.33;43.36;101088.38;4909869;28;118961;-69
2022/06/30 09:27:34;;;;;;;8.77;5.22;;;;;;;29.38;43.45;101091.41;4896145;28;124172;-69
2022/06/30 09:30:21;;;;;;;9.45;5.30;;;;;;;29.43;43.49;101094.44;4906741;28;123616;-69
2022/06/30 09:32:57;;;;;;;8.40;5.45;;;;;;;29.52;43.32;101104.22;4909420;28;119372;-69
2022/06/30 09:35:29;;;;;;;8.18;5.40;;;;;;;29.56;43.25;101094.63;4910452;28;119631;-69
2022/06/30 09:38:03;;;;;;;8.95;5.80;;;;;;;29.60;43.07;101104.13;4902982;28;124566;-69
2022/06/30 09:40:33;;;;;;;6.27;5.40;;;;;;;29.62;42.86;101099.31;4905778;28;124865;-69
2022/06/30 09:43:01;;;;;;;11.73;5.90;;;;;;;29.62;42.40;101102.03;4908185;28;119627;-69
2022/06/30 09:45:34;;;;;;;7.70;5.60;;;;;;;29.61;42.53;101094.91;4908121;28;119126;-69
2022/06/30 09:48:02;;;;;;;8.68;5.82;;;;;;;29.59;42.82;101094.25;4907490;28;124576;-69
2022/06/30 09:50:30;;;;;;;7.53;5.57;;;;;;;29.58;42.63;101098.00;4908968;28;123898;-69
2022/06/30 09:53:06;;;;;;;10.32;5.10;;;;;;;29.60;42.43;101109.59;4910456;28;120983;-69
2022/06/30 09:55:41;;;;;;;8.32;5.10;;;;;;;29.60;42.34;101095.94;4909211;28;119806;-69
2022/06/30 09:58:09;;;;;;;9.50;5.20;;;;;;;29.62;42.13;101104.78;4908694;28;124007;-69
2022/06/30 10:00:49;;;;;;;6.85;4.40;;;;;;;29.65;42.28;101093.50;4910529;28;124129;-69
2022/06/30 10:03:18;;;;;;;8.05;4.85;;;;;;;29.69;41.99;101100.25;4902765;28;119608;-69
2022/06/30 10:05:47;;;;;;;7.15;4.85;;;;;;;29.74;41.88;101104.34;4890338;28;119906;-69
2022/06/30 10:08:17;;;;;;;7.32;4.65;;;;;;;29.77;41.65;101106.69;4900541;28;124222;-69
2022/06/30 10:10:44;;;;;;;7.00;5.13;;;;;;;29.80;41.72;101106.31;4905453;28;123870;-69
2022/06/30 10:13:15;;;;;;;6.45;4.40;;;;;;;29.85;41.78;101099.22;4908283;28;118877;-69
2022/06/30 10:15:54;;;;;;;8.98;4.50;;;;;;;29.88;41.61;101098.03;4907946;28;119133;-69
2022/06/30 10:18:25;;;;;;;9.20;4.35;;;;;;;29.90;41.58;101095.94;4905472;28;125142;-70
2022/06/30 10:20:52;;;;;;;6.65;4.60;;;;;;;29.93;41.79;101101.00;4907292;28;123711;-70
2022/06/30 10:23:21;;;;;;;7.55;5.38;;;;;;;29.97;41.46;101107.81;4907720;28;119312;-70
2022/06/30 10:25:49;;;;;;;11.05;5.00;;;;;;;30.00;41.58;101095.66;4910164;28;119551;-70
2022/06/30 10:28:18;;;;;;;7.07;4.80;;;;;;;30.04;41.52;101097.78;4909066;28;123951;-70
2022/06/30 10:31:33;;;;;;;9.23;5.32;;;;;;;30.03;41.54;101093.38;4910225;28;123895;-70
2022/06/30 10:34:15;;;;;;;8.18;5.32;;;;;;;29.99;41.92;101089.34;4899886;28;119816;-71
2022/06/30 10:37:19;;;;;;;8.85;4.43;;;;;;;30.03;41.86;101098.84;4919203;28;119519;-71
2022/06/30 10:40:00;;;;;;;8.45;5.15;;;;;;;30.06;41.30;101095.75;4893985;28;124106;-70
2022/06/30 10:42:46;;;;;;;10.90;4.70;;;;;;;30.07;41.58;101108.34;4893435;28;123725;-71
2022/06/30 10:45:31;;;;;;;8.65;4.40;;;;;;;30.08;41.12;101101.84;4893092;28;120812;-70
2022/06/30 10:48:01;;;;;;;6.43;4.60;;;;;;;30.14;40.94;101102.09;4897821;28;120027;-70
2022/06/30 10:50:36;;;;;;;6.38;3.80;;;;;;;30.14;41.15;101092.06;4895597;28;124649;-70
2022/06/30 10:53:08;;;;;;;9.23;4.43;;;;;;;30.18;41.42;101084.31;4909388;28;122970;-70
2022/06/30 10:55:54;;;;;;;8.13;4.32;;;;;;;30.22;41.81;101082.88;4902031;28;119650;-71
2022/06/30 10:58:22;;;;;;;6.93;4.40;;;;;;;30.29;41.10;101083.81;4897096;28;119280;-71
2022/06/30 11:00:55;;;;;;;8.73;3.80;;;;;;;30.32;40.71;101088.91;4906066;28;124604;-70
2022/06/30 11:03:34;;;;;;;8.05;3.72;;;;;;;30.32;40.31;101088.91;4900957;28;123969;-70
2022/06/30 11:06:05;;;;;;;5.78;3.70;;;;;;;30.33;40.26;101089.75;4899118;28;119117;-71
2022/06/30 11:11:20;;;;;;;8.05;5.18;;;;;;;30.34;40.16;101075.88;4891202;28;124032;-70
2022/06/30 11:14:11;;;;;;;7.63;5.00;;;;;;;30.31;40.69;101080.88;4890061;28;123826;-71
2022/06/30 11:16:39;;;;;;;8.70;4.40;;;;;;;30.33;40.62;101079.69;4896210;28;119651;-70
2022/06/30 11:19:15;;;;;;;8.02;3.97;;;;;;;30.39;40.29;101078.91;4890415;28;119706;-70
2022/06/30 11:21:43;;;;;;;7.70;5.13;;;;;;;30.50;40.52;101068.47;4892884;28;123792;-71
2022/06/30 11:24:14;;;;;;;8.35;5.50;;;;;;;30.59;40.95;101067.31;4898253;28;124385;-70
2022/06/30 11:29:29;;;;;;;7.65;5.22;;;;;;;30.72;40.61;101066.59;4895152;28;118850;-70
2022/06/30 11:32:01;;;;;;;8.73;6.13;;;;;;;30.78;40.06;101066.66;4893201;28;124734;-70
2022/06/30 11:34:28;;;;;;;8.88;5.07;;;;;;;30.84;40.30;101073.22;4892684;28;123757;-71